createdAt,value
2019-01-20T00:01:56.362Z,-1.50
2019-01-20T00:04:25.609Z,-1.40
2019-01-20T00:06:54.839Z,-1.40
2019-01-20T00:09:24.009Z,-1.40
2019-01-20T00:11:53.327Z,-1.40
2019-01-20T00:14:22.598Z,-1.50
2019-01-20T00:16:51.833Z,-1.50
2019-01-20T00:19:21.126Z,-1.60
2019-01-20T00:21:51.407Z,-1.50
2019-01-20T00:24:20.768Z,-1.60
2019-01-20T00:26:49.980Z,-1.50
2019-01-20T00:29:19.323Z,-1.50
2019-01-20T00:31:48.875Z,-1.50
2019-01-20T00:34:18.521Z,-1.50
2019-01-20T00:36:47.789Z,-1.60
2019-01-20T00:39:16.973Z,-1.60
2019-01-20T00:41:46.502Z,-1.40
2019-01-20T00:44:15.738Z,-1.40
2019-01-20T00:46:45.208Z,-1.60
2019-01-20T00:49:14.388Z,-1.60
2019-01-20T00:51:43.745Z,-1.50
2019-01-20T00:54:13.199Z,-1.40
2019-01-20T00:56:43.001Z,-1.30
2019-01-20T00:59:12.249Z,-1.50
2019-01-20T01:01:41.878Z,-1.60
2019-01-20T01:04:11.302Z,-1.70
2019-01-20T01:06:40.756Z,-1.70
2019-01-20T01:09:09.929Z,-1.80
2019-01-20T01:11:39.376Z,-1.70
2019-01-20T01:14:08.619Z,-1.80
2019-01-20T01:16:37.816Z,-1.80
2019-01-20T01:19:07.073Z,-1.80
2019-01-20T01:21:36.914Z,-1.70
2019-01-20T01:24:06.411Z,-1.80
2019-01-20T01:26:36.856Z,-1.80
2019-01-20T01:29:06.409Z,-1.80
2019-01-20T01:31:35.674Z,-1.80
2019-01-20T01:34:04.840Z,-1.90
2019-01-20T01:36:34.066Z,-1.90
2019-01-20T01:39:04.777Z,-1.90
2019-01-20T01:41:39.016Z,-1.80
2019-01-20T01:44:04.976Z,-1.90
2019-01-20T01:46:34.333Z,-1.90
2019-01-20T01:49:03.887Z,-1.80
2019-01-20T01:51:33.405Z,-1.90
2019-01-20T01:54:02.578Z,-2.00
2019-01-20T01:56:32.039Z,-2.00
2019-01-20T01:59:01.212Z,-2.00
2019-01-20T02:01:30.461Z,-2.00
2019-01-20T02:04:00.029Z,-2.00
2019-01-20T02:06:29.304Z,-2.20
2019-01-20T02:08:58.562Z,-2.00
2019-01-20T02:11:27.860Z,-2.10
2019-01-20T02:13:57.038Z,-2.10
2019-01-20T02:16:26.307Z,-2.00
2019-01-20T02:18:55.607Z,-2.00
2019-01-20T02:21:24.837Z,-1.90
2019-01-20T02:23:54.085Z,-1.80
2019-01-20T02:26:23.509Z,-1.90
2019-01-20T02:28:52.745Z,-2.00
2019-01-20T02:31:22.335Z,-1.90
2019-01-20T02:33:51.861Z,-1.90
2019-01-20T02:36:21.022Z,-2.00
2019-01-20T02:38:50.285Z,-1.90
2019-01-20T02:41:19.507Z,-1.80
2019-01-20T02:43:48.829Z,-1.80
2019-01-20T02:46:18.041Z,-1.80
2019-01-20T02:48:47.237Z,-1.80
2019-01-20T02:51:16.429Z,-1.80
2019-01-20T02:53:45.833Z,-1.80
2019-01-20T02:56:15.076Z,-1.80
2019-01-20T02:58:44.498Z,-1.80
2019-01-20T03:01:13.753Z,-1.80
2019-01-20T03:03:43.082Z,-1.80
2019-01-20T03:06:12.504Z,-1.70
2019-01-20T03:08:41.726Z,-1.70
2019-01-20T03:11:11.334Z,-1.70
2019-01-20T03:13:40.885Z,-1.70
2019-01-20T03:16:10.403Z,-1.70
2019-01-20T03:18:39.722Z,-1.50
2019-01-20T03:21:08.987Z,-1.50
2019-01-20T03:23:38.241Z,-1.40
2019-01-20T03:26:07.480Z,-1.30
2019-01-20T03:28:37.072Z,-1.30
2019-01-20T03:31:06.311Z,-1.30
2019-01-20T03:33:35.533Z,-1.10
2019-01-20T03:36:04.879Z,-1.40
2019-01-20T03:38:34.166Z,-1.40
2019-01-20T03:41:03.511Z,-1.50
2019-01-20T03:43:32.651Z,-1.50
2019-01-20T03:46:01.930Z,-1.60
2019-01-20T03:48:31.164Z,-1.50
2019-01-20T03:51:00.340Z,-1.50
2019-01-20T03:53:29.564Z,-1.60
2019-01-20T03:55:58.806Z,-1.70
2019-01-20T03:58:28.036Z,-1.50
2019-01-20T04:00:57.386Z,-1.30
2019-01-20T04:03:26.897Z,-1.30
2019-01-20T04:05:56.335Z,-1.20
2019-01-20T04:08:26.160Z,-1.30
2019-01-20T04:10:55.399Z,-1.60
2019-01-20T04:13:24.886Z,-1.70
2019-01-20T04:15:54.411Z,-1.70
2019-01-20T04:18:23.990Z,-1.80
2019-01-20T04:20:53.165Z,-1.70
2019-01-20T04:23:22.442Z,-1.60
2019-01-20T04:25:51.602Z,-1.70
2019-01-20T04:28:20.846Z,-1.80
2019-01-20T04:30:50.079Z,-1.80
2019-01-20T04:33:19.339Z,-1.80
2019-01-20T04:35:48.863Z,-1.90
2019-01-20T04:38:18.299Z,-1.90
2019-01-20T04:40:47.512Z,-2.00
2019-01-20T04:43:17.034Z,-2.10
2019-01-20T04:45:46.376Z,-2.20
2019-01-20T04:48:15.699Z,-2.20
2019-01-20T04:50:44.913Z,-2.20
2019-01-20T04:53:14.090Z,-2.30
2019-01-20T04:55:43.315Z,-2.40
2019-01-20T04:58:12.758Z,-2.30
2019-01-20T05:00:42.321Z,-2.40
2019-01-20T05:03:11.665Z,-2.50
2019-01-20T05:05:40.881Z,-2.30
2019-01-20T05:08:10.385Z,-2.30
2019-01-20T05:10:39.611Z,-2.40
2019-01-20T05:13:09.247Z,-2.50
2019-01-20T05:15:38.564Z,-2.50
2019-01-20T05:18:07.754Z,-2.50
2019-01-20T05:20:36.983Z,-2.50
2019-01-20T05:23:06.317Z,-2.30
2019-01-20T05:25:35.657Z,-2.40
2019-01-20T05:28:04.889Z,-2.40
2019-01-20T05:30:34.149Z,-2.40
2019-01-20T05:33:03.358Z,-2.40
2019-01-20T05:35:32.921Z,-2.50
2019-01-20T05:38:02.163Z,-2.50
2019-01-20T05:40:31.486Z,-2.60
2019-01-20T05:43:00.969Z,-2.60
2019-01-20T05:45:30.226Z,-2.60
2019-01-20T05:47:59.492Z,-2.60
2019-01-20T05:50:28.786Z,-2.60
2019-01-20T05:52:58.626Z,-2.50
2019-01-20T05:55:28.216Z,-2.60
2019-01-20T05:57:57.381Z,-2.60
2019-01-20T06:00:31.652Z,-2.70
2019-01-20T06:03:01.301Z,-2.80
2019-01-20T06:05:30.614Z,-2.80
2019-01-20T06:07:59.951Z,-2.80
2019-01-20T06:10:29.109Z,-2.80
2019-01-20T06:12:58.342Z,-2.90
2019-01-20T06:15:27.916Z,-2.90
2019-01-20T06:17:57.116Z,-2.80
2019-01-20T06:20:26.277Z,-2.80
2019-01-20T06:22:55.493Z,-2.80
2019-01-20T06:25:24.683Z,-2.90
2019-01-20T06:27:54.165Z,-2.90
2019-01-20T06:30:31.832Z,-3.00
2019-01-20T06:33:01.064Z,-3.10
2019-01-20T06:35:30.377Z,-3.10
2019-01-20T06:37:59.842Z,-3.10
2019-01-20T06:40:29.022Z,-3.10
2019-01-20T06:43:02.150Z,-3.20
2019-01-20T06:45:29.486Z,-3.20
2019-01-20T06:47:58.962Z,-3.20
2019-01-20T06:50:28.238Z,-3.20
2019-01-20T06:52:57.753Z,-3.20
2019-01-20T06:55:27.541Z,-3.20
2019-01-20T06:57:57.106Z,-3.10
2019-01-20T07:00:26.694Z,-3.10
2019-01-20T07:02:56.857Z,-3.10
2019-01-20T07:05:26.109Z,-3.20
2019-01-20T07:07:55.591Z,-3.10
2019-01-20T07:10:24.829Z,-3.20
2019-01-20T07:12:54.330Z,-3.20
2019-01-20T07:15:24.681Z,-3.10
2019-01-20T07:17:54.372Z,-3.10
2019-01-20T07:20:23.545Z,-3.20
2019-01-20T07:22:53.021Z,-3.00
2019-01-20T07:25:22.613Z,-3.10
2019-01-20T07:27:51.771Z,-3.20
2019-01-20T07:30:22.726Z,-3.10
2019-01-20T07:32:51.948Z,-3.20
2019-01-20T07:35:21.287Z,-3.20
2019-01-20T07:37:50.858Z,-3.20
2019-01-20T07:40:21.911Z,-3.20
2019-01-20T07:42:51.160Z,-3.10
2019-01-20T07:45:20.526Z,-3.00
2019-01-20T07:47:49.781Z,-3.10
2019-01-20T07:50:21.146Z,-3.00
2019-01-20T07:52:51.043Z,-3.00
2019-01-20T07:55:20.481Z,-3.10
2019-01-20T07:57:50.295Z,-3.10
2019-01-20T08:00:21.480Z,-2.90
2019-01-20T08:02:50.826Z,-2.80
2019-01-20T08:05:20.369Z,-2.70
2019-01-20T08:07:50.002Z,-2.60
2019-01-20T08:10:21.899Z,-2.50
2019-01-20T08:12:51.198Z,-2.50
2019-01-20T08:15:21.194Z,-2.70
2019-01-20T08:17:50.531Z,-2.60
2019-01-20T08:20:20.387Z,-2.60
2019-01-20T08:22:49.764Z,-2.60
2019-01-20T08:25:19.552Z,-2.60
2019-01-20T08:27:49.101Z,-2.50
2019-01-20T08:30:20.650Z,-2.40
2019-01-20T08:32:50.898Z,-2.40
2019-01-20T08:35:20.234Z,-2.40
2019-01-20T08:37:49.861Z,-2.40
2019-01-20T08:40:30.659Z,-2.30
2019-01-20T08:43:00.589Z,-2.20
2019-01-20T08:46:03.250Z,-2.20
2019-01-20T08:48:32.649Z,-2.20
2019-01-20T08:51:02.523Z,-2.20
2019-01-20T08:53:31.855Z,-2.20
2019-01-20T08:56:01.534Z,-2.10
2019-01-20T08:58:30.833Z,-2.10
2019-01-20T09:01:00.367Z,-1.90
2019-01-20T09:03:29.745Z,-2.10
2019-01-20T09:05:59.121Z,-2.00
2019-01-20T09:08:28.445Z,-1.90
2019-01-20T09:10:58.834Z,-1.90
2019-01-20T09:13:28.556Z,-1.90
2019-01-20T09:15:58.169Z,-1.80
2019-01-20T09:18:28.918Z,-1.70
2019-01-20T09:20:58.378Z,-1.80
2019-01-20T09:23:27.738Z,-1.60
2019-01-20T09:25:57.278Z,-1.50
2019-01-20T09:28:27.231Z,-1.20
2019-01-20T09:30:57.213Z,-1.20
2019-01-20T09:33:28.473Z,-1.10
2019-01-20T09:35:57.916Z,-1.00
2019-01-20T09:38:27.561Z,-1.10
2019-01-20T09:40:56.851Z,-1.00
2019-01-20T09:43:26.269Z,-1.00
2019-01-20T09:45:56.182Z,-1.10
2019-01-20T09:48:25.667Z,-1.10
2019-01-20T09:50:55.012Z,-1.10
2019-01-20T09:53:24.358Z,-1.10
2019-01-20T09:55:53.726Z,-1.10
2019-01-20T09:58:23.082Z,-1.20
2019-01-20T10:00:52.475Z,-1.10
2019-01-20T10:03:21.905Z,-1.00
2019-01-20T10:05:51.215Z,-1.00
2019-01-20T10:08:21.829Z,-0.90
2019-01-20T10:10:51.475Z,-0.80
2019-01-20T10:13:21.109Z,-0.60
2019-01-20T10:15:52.404Z,-0.40
2019-01-20T10:18:22.010Z,-0.40
2019-01-20T10:20:51.558Z,-0.50
2019-01-20T10:23:20.939Z,-0.30
2019-01-20T10:25:50.380Z,-0.30
2019-01-20T10:28:22.479Z,-0.20
2019-01-20T10:30:52.122Z,-0.10
2019-01-20T10:33:23.330Z,0.00
2019-01-20T10:36:02.691Z,-0.10
2019-01-20T10:38:37.029Z,0.00
2019-01-20T10:41:03.831Z,0.10
2019-01-20T10:43:33.814Z,0.40
2019-01-20T10:46:03.429Z,0.50
2019-01-20T10:48:33.466Z,0.40
2019-01-20T10:51:02.980Z,0.60
2019-01-20T10:53:33.411Z,0.40
2019-01-20T10:56:02.774Z,0.60
2019-01-20T10:58:33.077Z,0.60
2019-01-20T11:01:02.643Z,0.80
2019-01-20T11:03:32.024Z,0.50
2019-01-20T11:06:01.712Z,0.60
2019-01-20T11:08:31.704Z,0.70
2019-01-20T11:11:01.059Z,0.90
2019-01-20T11:13:30.724Z,0.70
2019-01-20T11:16:00.108Z,0.70
2019-01-20T11:18:29.911Z,0.90
2019-01-20T11:20:59.250Z,0.80
2019-01-20T11:23:28.958Z,1.20
2019-01-20T11:25:58.310Z,1.00
2019-01-20T11:28:27.792Z,1.00
2019-01-20T11:30:59.267Z,1.00
2019-01-20T11:33:28.604Z,1.10
2019-01-20T11:35:58.274Z,1.10
2019-01-20T11:38:28.267Z,1.30
2019-01-20T11:40:57.680Z,1.30
2019-01-20T11:43:27.358Z,1.20
2019-01-20T11:45:57.255Z,1.10
2019-01-20T11:48:26.730Z,1.20
2019-01-20T11:50:56.127Z,1.30
2019-01-20T11:53:27.477Z,1.40
2019-01-20T11:55:58.271Z,1.50
2019-01-20T11:58:47.410Z,1.40
2019-01-20T12:01:16.684Z,1.20
2019-01-20T12:03:46.058Z,1.40
2019-01-20T12:06:15.369Z,1.30
2019-01-20T12:08:45.130Z,1.40
2019-01-20T12:11:14.878Z,1.60
2019-01-20T12:13:44.565Z,1.20
2019-01-20T12:16:13.806Z,1.20
2019-01-20T12:18:43.233Z,1.00
2019-01-20T12:21:12.792Z,1.20
2019-01-20T12:23:42.459Z,1.40
2019-01-20T12:26:11.622Z,1.60
2019-01-20T12:28:41.223Z,1.70
2019-01-20T12:31:10.526Z,1.60
2019-01-20T12:33:40.244Z,1.70
2019-01-20T12:36:09.608Z,1.80
2019-01-20T12:38:39.535Z,1.60
2019-01-20T12:41:08.829Z,1.50
2019-01-20T12:43:38.096Z,1.40
2019-01-20T12:46:07.814Z,1.40
2019-01-20T12:48:37.051Z,1.60
2019-01-20T12:51:06.250Z,1.90
2019-01-20T12:53:35.670Z,2.10
2019-01-20T12:56:05.010Z,2.00
2019-01-20T12:58:34.267Z,1.70
2019-01-20T13:01:03.824Z,1.70
2019-01-20T13:03:33.185Z,1.80
2019-01-20T13:06:02.729Z,1.50
2019-01-20T13:08:32.373Z,1.70
2019-01-20T13:11:01.845Z,1.80
2019-01-20T13:13:31.508Z,1.80
2019-01-20T13:16:00.982Z,2.00
2019-01-20T13:18:30.421Z,2.20
2019-01-20T13:20:59.976Z,2.40
2019-01-20T13:23:29.221Z,2.30
2019-01-20T13:25:58.435Z,2.30
2019-01-20T13:28:27.961Z,2.20
2019-01-20T13:30:57.222Z,2.10
2019-01-20T13:33:26.475Z,3.80
2019-01-20T13:35:55.726Z,4.90
2019-01-20T13:38:26.270Z,5.50
2019-01-20T13:40:59.231Z,5.90
2019-01-20T13:43:28.670Z,6.30
2019-01-20T13:45:58.079Z,6.40
2019-01-20T13:48:27.421Z,6.00
2019-01-20T13:50:56.636Z,6.50
2019-01-20T13:53:25.802Z,6.70
2019-01-20T13:56:01.112Z,6.80
2019-01-20T13:58:26.308Z,6.20
2019-01-20T14:00:55.802Z,6.30
2019-01-20T14:03:24.994Z,5.20
2019-01-20T14:05:54.244Z,5.80
2019-01-20T14:08:23.565Z,5.50
2019-01-20T14:10:53.194Z,5.40
2019-01-20T14:13:22.560Z,5.80
2019-01-20T14:15:51.738Z,5.80
2019-01-20T14:18:21.077Z,5.90
2019-01-20T14:20:50.288Z,5.60
2019-01-20T14:23:19.593Z,5.20
2019-01-20T14:25:48.733Z,5.40
2019-01-20T14:28:17.986Z,5.80
2019-01-20T14:30:47.232Z,5.30
2019-01-20T14:33:16.503Z,5.20
2019-01-20T14:35:45.723Z,5.20
2019-01-20T14:38:14.970Z,5.50
2019-01-20T14:40:44.486Z,5.30
2019-01-20T14:43:14.037Z,5.60
2019-01-20T14:45:43.521Z,5.50
2019-01-20T14:48:13.145Z,5.60
2019-01-20T14:50:42.744Z,5.80
2019-01-20T14:53:12.025Z,5.30
2019-01-20T14:55:41.587Z,5.10
2019-01-20T14:58:10.821Z,5.30
2019-01-20T15:00:40.266Z,5.10
2019-01-20T15:03:09.515Z,4.90
2019-01-20T15:05:38.745Z,4.60
2019-01-20T15:08:08.769Z,4.20
2019-01-20T15:10:38.470Z,3.50
2019-01-20T15:13:07.665Z,2.80
2019-01-20T15:15:39.370Z,2.40
2019-01-20T15:18:08.913Z,2.00
2019-01-20T15:20:38.615Z,1.80
2019-01-20T15:23:08.125Z,1.70
2019-01-20T15:25:37.660Z,1.70
2019-01-20T15:28:07.291Z,1.60
2019-01-20T15:30:36.660Z,1.70
2019-01-20T15:33:05.957Z,1.70
2019-01-20T15:35:35.194Z,1.60
2019-01-20T15:38:04.680Z,1.30
2019-01-20T15:40:34.038Z,1.30
2019-01-20T15:43:03.274Z,1.30
2019-01-20T15:45:32.656Z,1.40
2019-01-20T15:48:01.876Z,1.40
2019-01-20T15:50:32.256Z,1.40
2019-01-20T15:53:01.909Z,1.20
2019-01-20T15:55:31.389Z,1.10
2019-01-20T15:58:00.889Z,1.10
2019-01-20T16:00:33.233Z,1.10
2019-01-20T16:03:02.455Z,1.10
2019-01-20T16:05:31.640Z,1.10
2019-01-20T16:08:00.877Z,1.00
2019-01-20T16:10:30.209Z,0.90
2019-01-20T16:12:59.690Z,0.90
2019-01-20T16:15:31.457Z,0.80
2019-01-20T16:18:00.991Z,0.80
2019-01-20T16:20:31.321Z,0.80
2019-01-20T16:23:00.957Z,0.80
2019-01-20T16:25:33.468Z,0.70
2019-01-20T16:28:02.674Z,0.60
2019-01-20T16:30:34.408Z,0.70
2019-01-20T16:33:03.987Z,0.80
2019-01-20T16:35:33.834Z,0.80
2019-01-20T16:38:04.479Z,0.60
2019-01-20T16:40:34.331Z,0.60
2019-01-20T16:43:03.750Z,0.60
2019-01-20T16:45:41.950Z,0.50
2019-01-20T16:48:06.809Z,0.60
2019-01-20T16:50:36.061Z,0.50
2019-01-20T16:53:05.909Z,0.60
2019-01-20T16:55:35.493Z,0.50
2019-01-20T16:58:05.445Z,0.40
2019-01-20T17:00:36.935Z,0.50
2019-01-20T17:03:06.150Z,0.50
2019-01-20T17:05:35.389Z,0.50
2019-01-20T17:08:04.629Z,0.40
2019-01-20T17:10:36.561Z,0.40
2019-01-20T17:13:07.538Z,0.40
2019-01-20T17:15:39.695Z,0.40
2019-01-20T17:18:10.501Z,0.30
2019-01-20T17:20:39.945Z,0.40
2019-01-20T17:23:09.517Z,0.30
2019-01-20T17:25:38.670Z,0.30
2019-01-20T17:28:07.963Z,0.20
2019-01-20T17:30:37.425Z,0.20
2019-01-20T17:33:07.917Z,0.20
2019-01-20T17:35:37.245Z,0.00
2019-01-20T17:38:06.785Z,0.10
2019-01-20T17:40:36.061Z,0.10
2019-01-20T17:43:05.887Z,0.00
2019-01-20T17:45:37.868Z,0.10
2019-01-20T17:48:07.817Z,0.00
2019-01-20T17:50:38.585Z,-0.10
2019-01-20T17:53:08.970Z,0.00
2019-01-20T17:55:38.735Z,-0.10
2019-01-20T17:58:07.980Z,0.00
2019-01-20T18:00:43.773Z,0.00
2019-01-20T18:03:13.397Z,-0.10
2019-01-20T18:05:43.001Z,-0.10
2019-01-20T18:08:12.799Z,-0.20
2019-01-20T18:10:42.736Z,-0.30
2019-01-20T18:13:12.570Z,-0.30
2019-01-20T18:15:41.784Z,-0.10
2019-01-20T18:18:11.196Z,0.10
2019-01-20T18:20:40.418Z,0.00
2019-01-20T18:23:10.283Z,-0.20
2019-01-20T18:25:39.521Z,-0.20
2019-01-20T18:28:08.798Z,-0.20
2019-01-20T18:30:38.060Z,-0.20
2019-01-20T18:33:07.373Z,-0.20
2019-01-20T18:35:36.689Z,-0.40
2019-01-20T18:38:06.055Z,-0.40
2019-01-20T18:40:35.279Z,-0.50
2019-01-20T18:43:04.501Z,-0.50
2019-01-20T18:45:34.058Z,-0.60
2019-01-20T18:48:03.503Z,-0.50
2019-01-20T18:50:34.935Z,-0.60
2019-01-20T18:53:04.621Z,-0.60
2019-01-20T18:55:34.811Z,-0.60
2019-01-20T18:58:04.646Z,-0.50
2019-01-20T19:00:39.799Z,-0.50
2019-01-20T19:03:09.028Z,-0.50
2019-01-20T19:05:38.563Z,-0.50
2019-01-20T19:08:08.024Z,-0.50
2019-01-20T19:10:37.338Z,-0.70
2019-01-20T19:13:06.554Z,-0.70
2019-01-20T19:15:36.143Z,-0.70
2019-01-20T19:18:05.969Z,-0.80
2019-01-20T19:20:35.542Z,-0.80
2019-01-20T19:23:05.096Z,-0.80
2019-01-20T19:25:35.210Z,-0.80
2019-01-20T19:28:05.343Z,-0.80
2019-01-20T19:30:36.171Z,-0.70
2019-01-20T19:33:07.191Z,-0.70
2019-01-20T19:35:39.378Z,-0.70
2019-01-20T19:38:08.693Z,-0.70
2019-01-20T19:40:37.978Z,-0.80
2019-01-20T19:43:07.468Z,-0.80
2019-01-20T19:45:37.206Z,-0.90
2019-01-20T19:48:06.521Z,-0.90
2019-01-20T19:50:36.115Z,-0.90
2019-01-20T19:53:05.457Z,-0.90
2019-01-20T19:55:35.468Z,-0.90
2019-01-20T19:58:05.265Z,-0.90
2019-01-20T20:00:34.708Z,-0.90
2019-01-20T20:03:04.041Z,-0.90
2019-01-20T20:05:33.380Z,-1.00
2019-01-20T20:08:04.462Z,-1.00
2019-01-20T20:10:34.247Z,-1.00
2019-01-20T20:13:03.612Z,-1.00
2019-01-20T20:15:32.918Z,-1.00
2019-01-20T20:18:02.559Z,-1.10
2019-01-20T20:20:31.861Z,-1.10
2019-01-20T20:23:01.433Z,-1.30
2019-01-20T20:25:31.441Z,-1.20
2019-01-20T20:28:01.041Z,-1.10
2019-01-20T20:30:32.836Z,-1.10
2019-01-20T20:33:02.208Z,-1.10
2019-01-20T20:35:31.484Z,-1.10
2019-01-20T20:38:00.957Z,-1.10
2019-01-20T20:40:30.590Z,-1.10
2019-01-20T20:43:00.522Z,-1.10
2019-01-20T20:45:29.844Z,-1.10
2019-01-20T20:47:59.485Z,-1.00
2019-01-20T20:50:28.982Z,-1.00
2019-01-20T20:52:58.633Z,-1.00
2019-01-20T20:55:28.520Z,-1.10
2019-01-20T20:57:58.479Z,-1.10
2019-01-20T21:00:39.652Z,-1.00
2019-01-20T21:03:24.397Z,-1.10
2019-01-20T21:05:53.674Z,-1.00
2019-01-20T21:08:22.989Z,-1.10
2019-01-20T21:10:52.265Z,-1.10
2019-01-20T21:13:21.945Z,-1.20
2019-01-20T21:15:51.768Z,-1.10
2019-01-20T21:18:21.380Z,-1.10
2019-01-20T21:20:52.656Z,-1.10
2019-01-20T21:23:22.893Z,-1.10
2019-01-20T21:25:52.391Z,-1.20
2019-01-20T21:28:21.650Z,-1.20
2019-01-20T21:30:51.193Z,-1.20
2019-01-20T21:33:21.015Z,-1.20
2019-01-20T21:35:50.335Z,-1.30
2019-01-20T21:38:19.587Z,-1.20
2019-01-20T21:40:48.966Z,-1.20
2019-01-20T21:43:18.572Z,-1.20
2019-01-20T21:45:47.729Z,-1.30
2019-01-20T21:48:16.993Z,-1.30
2019-01-20T21:50:46.250Z,-1.30
2019-01-20T21:53:15.685Z,-1.30
2019-01-20T21:55:45.330Z,-1.30
2019-01-20T21:58:14.890Z,-1.30
2019-01-20T22:00:44.835Z,-1.30
2019-01-20T22:03:14.183Z,-1.20
2019-01-20T22:05:43.449Z,-1.00
2019-01-20T22:08:12.612Z,-1.20
2019-01-20T22:10:41.982Z,-1.20
2019-01-20T22:13:11.236Z,-1.20
2019-01-20T22:15:40.420Z,-1.20
2019-01-20T22:18:09.881Z,-1.20
2019-01-20T22:20:39.670Z,-1.30
2019-01-20T22:23:09.252Z,-1.30
2019-01-20T22:25:38.770Z,-1.30
2019-01-20T22:28:08.804Z,-1.30
2019-01-20T22:30:38.402Z,-1.30
2019-01-20T22:33:07.712Z,-1.40
2019-01-20T22:35:37.314Z,-1.40
2019-01-20T22:38:06.929Z,-1.50
2019-01-20T22:40:36.311Z,-1.50
2019-01-20T22:43:05.733Z,-1.50
2019-01-20T22:45:34.947Z,-1.50
2019-01-20T22:48:05.021Z,-1.50
2019-01-20T22:50:34.314Z,-1.50
2019-01-20T22:53:03.596Z,-1.50
2019-01-20T22:55:33.169Z,-1.50
2019-01-20T22:58:03.252Z,-1.50
2019-01-20T23:00:50.926Z,-1.60
2019-01-20T23:03:20.256Z,-1.60
2019-01-20T23:05:51.423Z,-1.60
2019-01-20T23:08:20.881Z,-1.70
2019-01-20T23:10:50.198Z,-1.70
2019-01-20T23:13:19.516Z,-1.70
2019-01-20T23:15:49.120Z,-1.70
2019-01-20T23:18:18.604Z,-1.70
2019-01-20T23:20:47.873Z,-1.70
2019-01-20T23:23:17.266Z,-1.80
2019-01-20T23:25:46.790Z,-1.80
2019-01-20T23:28:16.030Z,-1.90
2019-01-20T23:30:45.218Z,-1.90
2019-01-20T23:33:14.516Z,-1.90
2019-01-20T23:35:43.763Z,-1.90
2019-01-20T23:38:13.233Z,-1.90
2019-01-20T23:40:42.526Z,-1.80
2019-01-20T23:43:11.973Z,-1.90
2019-01-20T23:45:41.218Z,-1.90
2019-01-20T23:48:10.809Z,-1.90
2019-01-20T23:50:40.184Z,-1.90
2019-01-20T23:53:09.681Z,-1.90
2019-01-20T23:55:38.987Z,-1.90
2019-01-20T23:58:08.138Z,-2.00
